sensor_id;sensor_type;location;lat;lon;timestamp;pressure;altitude;pressure_sealevel;temperature;humidity
18985;BME280;9626;52.552;13.436;2024-01-16T00:00:08;99411.72;;;0.51;100.00
18985;BME280;9626;52.552;13.436;2024-01-16T00:02:34;99416.03;;;0.33;100.00
18985;BME280;9626;52.552;13.436;2024-01-16T00:05:00;99416.00;;;0.24;100.00
18985;BME280;9626;52.552;13.436;2024-01-16T00:07:26;99417.69;;;0.04;100.00
18985;BME280;9626;52.552;13.436;2024-01-16T00:09:52;99413.34;;;-0.07;100.00
18985;BME280;9626;52.552;13.436;2024-01-16T00:12:20;99427.13;;;-0.31;100.00
18985;BME280;9626;52.552;13.436;2024-01-16T00:14:46;99411.50;;;-0.25;100.00
18985;BME280;9626;52.552;13.436;2024-01-16T00:17:12;99417.63;;;-0.21;100.00
18985;BME280;9626;52.552;13.436;2024-01-16T00:19:38;99420.19;;;-0.27;100.00
18985;BME280;9626;52.552;13.436;2024-01-16T00:22:04;99424.53;;;-0.31;100.00
18985;BME280;9626;52.552;13.436;2024-01-16T00:24:31;99436.69;;;-0.25;100.00
18985;BME280;9626;52.552;13.436;2024-01-16T00:26:57;99448.81;;;-0.26;100.00
18985;BME280;9626;52.552;13.436;2024-01-16T00:29:23;99454.94;;;-0.14;100.00
18985;BME280;9626;52.552;13.436;2024-01-16T00:31:49;99447.09;;;-0.22;100.00
18985;BME280;9626;52.552;13.436;2024-01-16T00:34:15;99452.34;;;-0.13;100.00
18985;BME280;9626;52.552;13.436;2024-01-16T00:36:41;99456.69;;;-0.12;100.00
18985;BME280;9626;52.552;13.436;2024-01-16T00:39:07;99470.56;;;-0.08;100.00
18985;BME280;9626;52.552;13.436;2024-01-16T00:41:34;99474.94;;;-0.03;100.00
18985;BME280;9626;52.552;13.436;2024-01-16T00:44:00;99479.25;;;-0.05;100.00
18985;BME280;9626;52.552;13.436;2024-01-16T00:46:26;99473.16;;;-0.10;100.00
18985;BME280;9626;52.552;13.436;2024-01-16T00:48:52;99470.56;;;-0.14;100.00
18985;BME280;9626;52.552;13.436;2024-01-16T00:51:18;99490.53;;;-0.09;100.00
18985;BME280;9626;52.552;13.436;2024-01-16T00:53:44;99493.97;;;-0.11;100.00
18985;BME280;9626;52.552;13.436;2024-01-16T00:56:10;99493.97;;;-0.10;100.00
18985;BME280;9626;52.552;13.436;2024-01-16T00:58:38;99495.69;;;-0.18;100.00
18985;BME280;9626;52.552;13.436;2024-01-16T01:01:04;99524.28;;;-0.26;100.00
18985;BME280;9626;52.552;13.436;2024-01-16T01:03:30;99526.84;;;-0.30;100.00
18985;BME280;9626;52.552;13.436;2024-01-16T01:05:57;99514.75;;;-0.22;100.00
18985;BME280;9626;52.552;13.436;2024-01-16T01:08:23;99521.66;;;-0.27;100.00
18985;BME280;9626;52.552;13.436;2024-01-16T01:10:49;99516.41;;;-0.38;100.00
18985;BME280;9626;52.552;13.436;2024-01-16T01:13:15;99517.19;;;-0.47;100.00
18985;BME280;9626;52.552;13.436;2024-01-16T01:15:41;99521.47;;;-0.58;100.00
18985;BME280;9626;52.552;13.436;2024-01-16T01:18:07;99525.84;;;-0.51;100.00
18985;BME280;9626;52.552;13.436;2024-01-16T01:20:33;99537.16;;;-0.46;100.00
18985;BME280;9626;52.552;13.436;2024-01-16T01:23:00;99537.94;;;-0.55;100.00
18985;BME280;9626;52.552;13.436;2024-01-16T01:25:26;99537.91;;;-0.61;100.00
18985;BME280;9626;52.552;13.436;2024-01-16T01:28:10;99544.06;;;-0.51;100.00
18985;BME280;9626;52.552;13.436;2024-01-16T01:30:37;99536.25;;;-0.48;100.00
18985;BME280;9626;52.552;13.436;2024-01-16T01:33:03;99536.25;;;-0.54;100.00
18985;BME280;9626;52.552;13.436;2024-01-16T01:35:29;99541.34;;;-0.66;100.00
18985;BME280;9626;52.552;13.436;2024-01-16T01:37:55;99543.97;;;-0.63;100.00
18985;BME280;9626;52.552;13.436;2024-01-16T01:40:21;99549.09;;;-0.70;100.00
18985;BME280;9626;52.552;13.436;2024-01-16T01:42:47;99545.66;;;-0.69;100.00
18985;BME280;9626;52.552;13.436;2024-01-16T01:45:13;99542.25;;;-0.61;100.00
18985;BME280;9626;52.552;13.436;2024-01-16T01:47:40;99545.66;;;-0.67;100.00
18985;BME280;9626;52.552;13.436;2024-01-16T01:50:09;99552.59;;;-0.68;100.00
18985;BME280;9626;52.552;13.436;2024-01-16T01:52:38;99548.25;;;-0.67;100.00
18985;BME280;9626;52.552;13.436;2024-01-16T01:55:11;99541.28;;;-0.74;100.00
18985;BME280;9626;52.552;13.436;2024-01-16T01:57:39;99549.06;;;-0.76;100.00
18985;BME280;9626;52.552;13.436;2024-01-16T02:00:06;99544.78;;;-0.69;100.00
18985;BME280;9626;52.552;13.436;2024-01-16T02:02:33;99546.47;;;-0.73;100.00
18985;BME280;9626;52.552;13.436;2024-01-16T02:04:59;99554.38;;;-0.60;100.00
18985;BME280;9626;52.552;13.436;2024-01-16T02:07:25;99559.66;;;-0.48;100.00
18985;BME280;9626;52.552;13.436;2024-01-16T02:09:51;99562.25;;;-0.51;100.00
18985;BME280;9626;52.552;13.436;2024-01-16T02:12:17;99566.59;;;-0.53;100.00
18985;BME280;9626;52.552;13.436;2024-01-16T02:14:43;99563.09;;;-0.55;100.00
18985;BME280;9626;52.552;13.436;2024-01-16T02:17:09;99569.28;;;-0.39;100.00
18985;BME280;9626;52.552;13.436;2024-01-16T02:19:36;99578.88;;;-0.27;100.00
18985;BME280;9626;52.552;13.436;2024-01-16T02:22:04;99567.59;;;-0.34;100.00
18985;BME280;9626;52.552;13.436;2024-01-16T02:24:32;99577.09;;;-0.39;100.00
18985;BME280;9626;52.552;13.436;2024-01-16T02:26:58;99586.41;;;-0.69;100.00
18985;BME280;9626;52.552;13.436;2024-01-16T02:29:24;99577.69;;;-0.74;100.00
18985;BME280;9626;52.552;13.436;2024-01-16T02:31:50;99585.50;;;-0.73;100.00
18985;BME280;9626;52.552;13.436;2024-01-16T02:34:16;99589.91;;;-0.62;100.00
18985;BME280;9626;52.552;13.436;2024-01-16T02:36:42;99596.81;;;-0.64;100.00
18985;BME280;9626;52.552;13.436;2024-01-16T02:39:08;99590.69;;;-0.74;100.00
18985;BME280;9626;52.552;13.436;2024-01-16T02:41:34;99594.13;;;-0.77;100.00
18985;BME280;9626;52.552;13.436;2024-01-16T02:44:00;99591.53;;;-0.74;100.00
18985;BME280;9626;52.552;13.436;2024-01-16T02:46:25;99601.88;;;-0.81;100.00
18985;BME280;9626;52.552;13.436;2024-01-16T02:48:51;99618.38;;;-0.78;100.00
18985;BME280;9626;52.552;13.436;2024-01-16T02:51:17;99618.34;;;-0.79;100.00
18985;BME280;9626;52.552;13.436;2024-01-16T02:53:43;99624.22;;;-1.00;100.00
18985;BME280;9626;52.552;13.436;2024-01-16T02:56:09;99622.38;;;-1.09;100.00
18985;BME280;9626;52.552;13.436;2024-01-16T02:58:36;99622.31;;;-1.18;100.00
18985;BME280;9626;52.552;13.436;2024-01-16T03:01:02;99631.75;;;-1.25;100.00
18985;BME280;9626;52.552;13.436;2024-01-16T03:03:28;99634.84;;;-1.54;100.00
18985;BME280;9626;52.552;13.436;2024-01-16T03:05:54;99638.19;;;-1.64;100.00
18985;BME280;9626;52.552;13.436;2024-01-16T03:08:21;99640.78;;;-1.66;100.00
18985;BME280;9626;52.552;13.436;2024-01-16T03:10:47;99642.63;;;-1.56;100.00
18985;BME280;9626;52.552;13.436;2024-01-16T03:13:13;99648.72;;;-1.55;100.00
18985;BME280;9626;52.552;13.436;2024-01-16T03:15:39;99661.06;;;-1.36;100.00
18985;BME280;9626;52.552;13.436;2024-01-16T03:18:06;99669.09;;;-1.15;100.00
18985;BME280;9626;52.552;13.436;2024-01-16T03:20:32;99667.44;;;-1.09;100.00
18985;BME280;9626;52.552;13.436;2024-01-16T03:22:58;99666.44;;;-1.20;100.00
18985;BME280;9626;52.552;13.436;2024-01-16T03:25:24;99662.03;;;-1.26;100.00
18985;BME280;9626;52.552;13.436;2024-01-16T03:27:50;99665.53;;;-1.25;100.00
18985;BME280;9626;52.552;13.436;2024-01-16T03:30:16;99678.53;;;-1.25;100.00
18985;BME280;9626;52.552;13.436;2024-01-16T03:32:42;99685.59;;;-1.12;100.00
18985;BME280;9626;52.552;13.436;2024-01-16T03:35:09;99694.28;;;-1.11;100.00
18985;BME280;9626;52.552;13.436;2024-01-16T03:37:35;99692.59;;;-1.08;100.00
18985;BME280;9626;52.552;13.436;2024-01-16T03:40:03;99696.91;;;-1.05;100.00
18985;BME280;9626;52.552;13.436;2024-01-16T03:42:29;99702.22;;;-0.99;100.00
18985;BME280;9626;52.552;13.436;2024-01-16T03:44:55;99710.84;;;-1.02;100.00
18985;BME280;9626;52.552;13.436;2024-01-16T03:47:21;99713.41;;;-1.06;100.00
18985;BME280;9626;52.552;13.436;2024-01-16T03:49:47;99710.03;;;-0.94;100.00
18985;BME280;9626;52.552;13.436;2024-01-16T03:52:13;99718.72;;;-0.95;100.00
18985;BME280;9626;52.552;13.436;2024-01-16T03:54:39;99722.97;;;-1.00;100.00
18985;BME280;9626;52.552;13.436;2024-01-16T03:57:05;99743.00;;;-0.90;100.00
18985;BME280;9626;52.552;13.436;2024-01-16T03:59:31;99745.56;;;-0.96;100.00
18985;BME280;9626;52.552;13.436;2024-01-16T04:01:57;99748.97;;;-1.02;100.00
18985;BME280;9626;52.552;13.436;2024-01-16T04:04:23;99746.28;;;-1.07;100.00
18985;BME280;9626;52.552;13.436;2024-01-16T04:06:49;99744.47;;;-1.14;100.00
18985;BME280;9626;52.552;13.436;2024-01-16T04:09:15;99740.94;;;-1.19;100.00
18985;BME280;9626;52.552;13.436;2024-01-16T04:11:41;99732.25;;;-1.21;100.00
18985;BME280;9626;52.552;13.436;2024-01-16T04:14:07;99732.25;;;-1.21;100.00
18985;BME280;9626;52.552;13.436;2024-01-16T04:16:33;99720.25;;;-1.11;100.00
18985;BME280;9626;52.552;13.436;2024-01-16T04:18:59;99723.59;;;-1.20;100.00
18985;BME280;9626;52.552;13.436;2024-01-16T04:21:25;99727.16;;;-1.12;100.00
18985;BME280;9626;52.552;13.436;2024-01-16T04:23:51;99748.00;;;-1.09;100.00
18985;BME280;9626;52.552;13.436;2024-01-16T04:26:17;99754.25;;;-0.93;100.00
18985;BME280;9626;52.552;13.436;2024-01-16T04:28:44;99744.56;;;-1.06;100.00
18985;BME280;9626;52.552;13.436;2024-01-16T04:31:10;99754.16;;;-1.00;100.00
18985;BME280;9626;52.552;13.436;2024-01-16T04:33:42;99758.25;;;-1.21;100.00
18985;BME280;9626;52.552;13.436;2024-01-16T04:36:08;99764.22;;;-1.27;100.00
18985;BME280;9626;52.552;13.436;2024-01-16T04:38:33;99765.28;;;-1.11;100.00
18985;BME280;9626;52.552;13.436;2024-01-16T04:41:03;99767.81;;;-1.18;100.00
18985;BME280;9626;52.552;13.436;2024-01-16T04:43:29;99770.31;;;-1.23;100.00
18985;BME280;9626;52.552;13.436;2024-01-16T04:45:55;99766.94;;;-1.16;100.00
18985;BME280;9626;52.552;13.436;2024-01-16T04:48:21;99766.03;;;-1.23;100.00
18985;BME280;9626;52.552;13.436;2024-01-16T04:50:47;99765.97;;;-1.24;100.00
18985;BME280;9626;52.552;13.436;2024-01-16T04:53:13;99761.84;;;-1.11;100.00
18985;BME280;9626;52.552;13.436;2024-01-16T04:55:39;99757.34;;;-1.22;100.00
18985;BME280;9626;52.552;13.436;2024-01-16T04:58:05;99760.88;;;-1.18;100.00
18985;BME280;9626;52.552;13.436;2024-01-16T05:00:31;99770.31;;;-1.23;100.00
18985;BME280;9626;52.552;13.436;2024-01-16T05:02:57;99759.91;;;-1.26;100.00
18985;BME280;9626;52.552;13.436;2024-01-16T05:05:23;99761.53;;;-1.34;100.00
18985;BME280;9626;52.552;13.436;2024-01-16T05:07:49;99770.97;;;-1.38;100.00
18985;BME280;9626;52.552;13.436;2024-01-16T05:10:15;99758.91;;;-1.36;100.00
18985;BME280;9626;52.552;13.436;2024-01-16T05:12:41;99759.03;;;-1.27;100.00
18985;BME280;9626;52.552;13.436;2024-01-16T05:15:08;99772.03;;;-1.25;100.00
18985;BME280;9626;52.552;13.436;2024-01-16T05:17:34;99784.97;;;-1.28;100.00
18985;BME280;9626;52.552;13.436;2024-01-16T05:20:02;99780.59;;;-1.32;100.00
18985;BME280;9626;52.552;13.436;2024-01-16T05:22:31;99784.06;;;-1.32;100.00
18985;BME280;9626;52.552;13.436;2024-01-16T05:24:57;99784.09;;;-1.30;100.00
18985;BME280;9626;52.552;13.436;2024-01-16T05:27:23;99776.28;;;-1.30;100.00
18985;BME280;9626;52.552;13.436;2024-01-16T05:29:49;99773.59;;;-1.37;100.00
18985;BME280;9626;52.552;13.436;2024-01-16T05:32:14;99777.09;;;-1.34;100.00
18985;BME280;9626;52.552;13.436;2024-01-16T05:34:40;99771.09;;;-1.30;100.00
18985;BME280;9626;52.552;13.436;2024-01-16T05:37:06;99792.75;;;-1.28;100.00
18985;BME280;9626;52.552;13.436;2024-01-16T05:39:32;99796.97;;;-1.38;100.00
18985;BME280;9626;52.552;13.436;2024-01-16T05:41:58;99794.44;;;-1.33;100.00
18985;BME280;9626;52.552;13.436;2024-01-16T05:44:25;99799.63;;;-1.33;100.00
18985;BME280;9626;52.552;13.436;2024-01-16T05:46:51;99793.81;;;-1.17;100.00
18985;BME280;9626;52.552;13.436;2024-01-16T05:49:17;99798.97;;;-1.18;100.00
18985;BME280;9626;52.552;13.436;2024-01-16T05:51:42;99802.47;;;-1.16;100.00
18985;BME280;9626;52.552;13.436;2024-01-16T05:54:08;99813.63;;;-1.25;100.00
18985;BME280;9626;52.552;13.436;2024-01-16T05:56:34;99823.03;;;-1.33;100.00
18985;BME280;9626;52.552;13.436;2024-01-16T05:59:00;99817.81;;;-1.33;100.00
18985;BME280;9626;52.552;13.436;2024-01-16T06:01:26;99817.81;;;-1.33;100.00
18985;BME280;9626;52.552;13.436;2024-01-16T06:03:55;99817.97;;;-1.23;100.00
18985;BME280;9626;52.552;13.436;2024-01-16T06:06:21;99825.63;;;-1.33;100.00
18985;BME280;9626;52.552;13.436;2024-01-16T06:08:47;99828.22;;;-1.33;100.00
18985;BME280;9626;52.552;13.436;2024-01-16T06:11:13;99823.94;;;-1.28;100.00
18985;BME280;9626;52.552;13.436;2024-01-16T06:13:40;99833.47;;;-1.29;100.00
18985;BME280;9626;52.552;13.436;2024-01-16T06:16:06;99834.09;;;-1.45;100.00
18985;BME280;9626;52.552;13.436;2024-01-16T06:18:34;99834.84;;;-1.52;100.00
18985;BME280;9626;52.552;13.436;2024-01-16T06:21:02;99836.69;;;-1.45;100.00
18985;BME280;9626;52.552;13.436;2024-01-16T06:23:28;99838.44;;;-1.44;100.00
18985;BME280;9626;52.552;13.436;2024-01-16T06:25:54;99840.28;;;-1.37;100.00
18985;BME280;9626;52.552;13.436;2024-01-16T06:28:20;99849.03;;;-1.30;100.00
18985;BME280;9626;52.552;13.436;2024-01-16T06:30:46;99858.78;;;-1.14;100.00
18985;BME280;9626;52.552;13.436;2024-01-16T06:33:12;99854.47;;;-1.12;100.00
18985;BME280;9626;52.552;13.436;2024-01-16T06:35:38;99865.75;;;-1.13;100.00
18985;BME280;9626;52.552;13.436;2024-01-16T06:38:04;99867.53;;;-1.09;100.00
18985;BME280;9626;52.552;13.436;2024-01-16T06:40:30;99862.09;;;-1.24;100.00
18985;BME280;9626;52.552;13.436;2024-01-16T06:42:56;99863.06;;;-1.17;100.00
18985;BME280;9626;52.552;13.436;2024-01-16T06:45:22;99866.41;;;-1.26;100.00
18985;BME280;9626;52.552;13.436;2024-01-16T06:47:48;99870.03;;;-1.15;100.00
18985;BME280;9626;52.552;13.436;2024-01-16T06:50:14;99876.88;;;-1.20;100.00
18985;BME280;9626;52.552;13.436;2024-01-16T06:52:40;99872.75;;;-1.09;100.00
18985;BME280;9626;52.552;13.436;2024-01-16T06:55:06;99889.34;;;-0.99;100.00
18985;BME280;9626;52.552;13.436;2024-01-16T06:57:32;99890.09;;;-1.06;100.00
18985;BME280;9626;52.552;13.436;2024-01-16T06:59:58;99901.22;;;-1.15;100.00
18985;BME280;9626;52.552;13.436;2024-01-16T07:02:24;99891.81;;;-1.07;100.00
18985;BME280;9626;52.552;13.436;2024-01-16T07:04:51;99900.59;;;-0.98;100.00
18985;BME280;9626;52.552;13.436;2024-01-16T07:07:19;99904.06;;;-0.99;100.00
18985;BME280;9626;52.552;13.436;2024-01-16T07:09:45;99907.53;;;-0.97;100.00
18985;BME280;9626;52.552;13.436;2024-01-16T07:12:12;99915.34;;;-0.96;100.00
18985;BME280;9626;52.552;13.436;2024-01-16T07:14:38;99912.84;;;-0.91;100.00
18985;BME280;9626;52.552;13.436;2024-01-16T07:17:05;99919.69;;;-0.96;100.00
18985;BME280;9626;52.552;13.436;2024-01-16T07:19:33;99922.19;;;-1.03;100.00
18985;BME280;9626;52.552;13.436;2024-01-16T07:21:59;99924.56;;;-1.18;100.00
18985;BME280;9626;52.552;13.436;2024-01-16T07:24:25;99928.13;;;-1.13;100.00
18985;BME280;9626;52.552;13.436;2024-01-16T07:26:51;99934.16;;;-1.14;100.00
18985;BME280;9626;52.552;13.436;2024-01-16T07:29:17;99933.16;;;-1.22;100.00
18985;BME280;9626;52.552;13.436;2024-01-16T07:31:44;99935.94;;;-1.10;100.00
18985;BME280;9626;52.552;13.436;2024-01-16T07:34:10;99940.31;;;-1.09;100.00
18985;BME280;9626;52.552;13.436;2024-01-16T07:36:36;99939.38;;;-1.11;100.00
18985;BME280;9626;52.552;13.436;2024-01-16T07:39:02;99943.75;;;-1.10;100.00
18985;BME280;9626;52.552;13.436;2024-01-16T07:41:29;99942.16;;;-1.00;100.00
18985;BME280;9626;52.552;13.436;2024-01-16T07:43:55;99939.69;;;-0.91;100.00
18985;BME280;9626;52.552;13.436;2024-01-16T07:46:21;99949.88;;;-1.06;100.00
18985;BME280;9626;52.552;13.436;2024-01-16T07:48:47;99943.97;;;-0.94;100.00
18985;BME280;9626;52.552;13.436;2024-01-16T07:51:13;99941.22;;;-1.05;100.00
18985;BME280;9626;52.552;13.436;2024-01-16T07:53:39;99942.25;;;-0.95;100.00
18985;BME280;9626;52.552;13.436;2024-01-16T07:56:05;99951.72;;;-0.99;100.00
18985;BME280;9626;52.552;13.436;2024-01-16T07:58:32;99952.69;;;-0.92;100.00
18985;BME280;9626;52.552;13.436;2024-01-16T08:00:58;99952.72;;;-0.89;100.00
18985;BME280;9626;52.552;13.436;2024-01-16T08:03:24;99957.91;;;-0.89;100.00
18985;BME280;9626;52.552;13.436;2024-01-16T08:05:50;99965.69;;;-0.91;100.00
18985;BME280;9626;52.552;13.436;2024-01-16T08:08:16;99972.50;;;-0.99;100.00
18985;BME280;9626;52.552;13.436;2024-01-16T08:10:42;99975.28;;;-0.88;100.00
18985;BME280;9626;52.552;13.436;2024-01-16T08:13:08;99968.28;;;-0.92;100.00
18985;BME280;9626;52.552;13.436;2024-01-16T08:15:34;99971.38;;;-1.15;100.00
18985;BME280;9626;52.552;13.436;2024-01-16T08:18:00;99968.81;;;-1.12;100.00
18985;BME280;9626;52.552;13.436;2024-01-16T08:20:26;99973.31;;;-1.02;100.00
18985;BME280;9626;52.552;13.436;2024-01-16T08:22:53;99981.13;;;-1.02;100.00
18985;BME280;9626;52.552;13.436;2024-01-16T08:25:19;99975.97;;;-0.98;100.00
18985;BME280;9626;52.552;13.436;2024-01-16T08:27:45;99983.91;;;-0.89;100.00
18985;BME280;9626;52.552;13.436;2024-01-16T08:30:11;99994.16;;;-0.98;100.00
18985;BME280;9626;52.552;13.436;2024-01-16T08:32:38;99982.91;;;-0.99;100.00
18985;BME280;9626;52.552;13.436;2024-01-16T08:35:04;99980.28;;;-1.00;100.00
18985;BME280;9626;52.552;13.436;2024-01-16T08:37:32;99977.22;;;-0.73;100.00
18985;BME280;9626;52.552;13.436;2024-01-16T08:39:59;99977.16;;;-0.78;100.00
18985;BME280;9626;52.552;13.436;2024-01-16T08:42:25;99992.81;;;-0.75;100.00
18985;BME280;9626;52.552;13.436;2024-01-16T08:44:51;99979.09;;;-0.63;100.00
18985;BME280;9626;52.552;13.436;2024-01-16T08:47:17;99977.47;;;-0.56;100.00
18985;BME280;9626;52.552;13.436;2024-01-16T08:49:43;99980.81;;;-0.66;100.00
18985;BME280;9626;52.552;13.436;2024-01-16T08:52:09;99988.78;;;-0.54;100.00
18985;BME280;9626;52.552;13.436;2024-01-16T08:54:36;99995.00;;;-0.43;100.00
18985;BME280;9626;52.552;13.436;2024-01-16T08:57:02;99985.47;;;-0.42;100.00
18985;BME280;9626;52.552;13.436;2024-01-16T08:59:28;99984.34;;;-0.61;100.00
18985;BME280;9626;52.552;13.436;2024-01-16T09:01:54;99987.16;;;-0.46;100.00
18985;BME280;9626;52.552;13.436;2024-01-16T09:04:20;99981.06;;;-0.46;100.00
18985;BME280;9626;52.552;13.436;2024-01-16T09:06:46;99982.00;;;-0.41;100.00
18985;BME280;9626;52.552;13.436;2024-01-16T09:09:12;99981.97;;;-0.44;100.00
18985;BME280;9626;52.552;13.436;2024-01-16T09:11:38;99991.91;;;-0.12;100.00
18985;BME280;9626;52.552;13.436;2024-01-16T09:14:04;99995.25;;;-0.24;100.00
18985;BME280;9626;52.552;13.436;2024-01-16T09:16:30;99999.53;;;-0.28;100.00
18985;BME280;9626;52.552;13.436;2024-01-16T09:18:56;100002.81;;;-0.43;100.00
18985;BME280;9626;52.552;13.436;2024-01-16T09:21:22;100007.94;;;-0.49;100.00
18985;BME280;9626;52.552;13.436;2024-01-16T09:23:48;100001.91;;;-0.45;100.00
18985;BME280;9626;52.552;13.436;2024-01-16T09:26:14;100007.34;;;-0.28;100.00
18985;BME280;9626;52.552;13.436;2024-01-16T09:28:40;100010.78;;;-0.30;100.00
18985;BME280;9626;52.552;13.436;2024-01-16T09:31:06;100008.09;;;-0.37;100.00
18985;BME280;9626;52.552;13.436;2024-01-16T09:33:34;100007.31;;;-0.29;100.00
18985;BME280;9626;52.552;13.436;2024-01-16T09:36:00;100011.56;;;-0.36;100.00
18985;BME280;9626;52.552;13.436;2024-01-16T09:38:26;100011.84;;;-0.16;100.00
18985;BME280;9626;52.552;13.436;2024-01-16T09:40:52;100014.31;;;-0.27;100.00
18985;BME280;9626;52.552;13.436;2024-01-16T09:43:22;100007.28;;;-0.32;100.00
18985;BME280;9626;52.552;13.436;2024-01-16T09:45:49;100010.28;;;-0.02;100.00
18985;BME280;9626;52.552;13.436;2024-01-16T09:48:15;100007.63;;;-0.08;100.00
18985;BME280;9626;52.552;13.436;2024-01-16T09:50:41;100012.16;;;0.09;100.00
18985;BME280;9626;52.552;13.436;2024-01-16T09:53:07;100005.78;;;-0.15;100.00
18985;BME280;9626;52.552;13.436;2024-01-16T09:55:33;100011.91;;;-0.10;100.00
18985;BME280;9626;52.552;13.436;2024-01-16T09:58:00;100011.03;;;-0.12;100.00
18985;BME280;9626;52.552;13.436;2024-01-16T10:00:30;100016.50;;;0.10;100.00
18985;BME280;9626;52.552;13.436;2024-01-16T10:02:56;100013.03;;;0.11;100.00
18985;BME280;9626;52.552;13.436;2024-01-16T10:05:24;100020.97;;;0.20;100.00
18985;BME280;9626;52.552;13.436;2024-01-16T10:07:51;100016.53;;;0.13;100.00
18985;BME280;9626;52.552;13.436;2024-01-16T10:10:17;100020.88;;;0.12;100.00
18985;BME280;9626;52.552;13.436;2024-01-16T10:12:45;100021.75;;;0.13;100.00
18985;BME280;9626;52.552;13.436;2024-01-16T10:15:14;100020.94;;;0.17;100.00
18985;BME280;9626;52.552;13.436;2024-01-16T10:17:41;100022.03;;;0.38;100.00
18985;BME280;9626;52.552;13.436;2024-01-16T10:20:09;100027.00;;;0.16;100.00
18985;BME280;9626;52.552;13.436;2024-01-16T10:22:40;100020.13;;;0.24;100.00
18985;BME280;9626;52.552;13.436;2024-01-16T10:25:10;100024.47;;;0.22;100.00
18985;BME280;9626;52.552;13.436;2024-01-16T10:27:47;100024.53;;;0.30;100.00
18985;BME280;9626;52.552;13.436;2024-01-16T10:30:13;100027.06;;;0.22;100.00
18985;BME280;9626;52.552;13.436;2024-01-16T10:32:41;100025.38;;;0.26;100.00
18985;BME280;9626;52.552;13.436;2024-01-16T10:35:11;100028.16;;;0.41;100.00
18985;BME280;9626;52.552;13.436;2024-01-16T10:37:48;100025.59;;;0.46;100.00
18985;BME280;9626;52.552;13.436;2024-01-16T10:40:21;100030.88;;;0.52;100.00
18985;BME280;9626;52.552;13.436;2024-01-16T10:43:02;100034.22;;;0.42;100.00
18985;BME280;9626;52.552;13.436;2024-01-16T10:45:29;100040.38;;;0.48;100.00
18985;BME280;9626;52.552;13.436;2024-01-16T10:48:03;100036.97;;;0.56;100.00
18985;BME280;9626;52.552;13.436;2024-01-16T10:50:30;100037.19;;;0.76;100.00
18985;BME280;9626;52.552;13.436;2024-01-16T10:52:59;100044.81;;;0.57;100.00
18985;BME280;9626;52.552;13.436;2024-01-16T10:55:28;100035.59;;;0.90;100.00
18985;BME280;9626;52.552;13.436;2024-01-16T10:57:56;100032.22;;;1.04;100.00
18985;BME280;9626;52.552;13.436;2024-01-16T11:00:22;100037.41;;;0.97;100.00
18985;BME280;9626;52.552;13.436;2024-01-16T11:02:54;100026.13;;;0.98;100.00
18985;BME280;9626;52.552;13.436;2024-01-16T11:05:23;100024.28;;;0.88;100.00
18985;BME280;9626;52.552;13.436;2024-01-16T11:07:54;100023.34;;;0.81;100.00
18985;BME280;9626;52.552;13.436;2024-01-16T11:10:21;100021.53;;;0.71;100.00
18985;BME280;9626;52.552;13.436;2024-01-16T11:12:49;100014.44;;;0.59;100.00
18985;BME280;9626;52.552;13.436;2024-01-16T11:15:15;100009.13;;;0.48;100.00
18985;BME280;9626;52.552;13.436;2024-01-16T11:17:44;100007.44;;;0.54;100.00
18985;BME280;9626;52.552;13.436;2024-01-16T11:20:11;100008.44;;;0.66;100.00
18985;BME280;9626;52.552;13.436;2024-01-16T11:22:41;100008.47;;;0.70;100.00
18985;BME280;9626;52.552;13.436;2024-01-16T11:25:13;100004.88;;;0.57;100.00
18985;BME280;9626;52.552;13.436;2024-01-16T11:27:41;100003.06;;;0.51;100.00
18985;BME280;9626;52.552;13.436;2024-01-16T11:30:09;100005.78;;;0.60;100.00
18985;BME280;9626;52.552;13.436;2024-01-16T11:32:40;100018.94;;;0.76;100.00
18985;BME280;9626;52.552;13.436;2024-01-16T11:35:08;100011.75;;;0.50;100.00
18985;BME280;9626;52.552;13.436;2024-01-16T11:37:35;100005.44;;;0.28;100.00
18985;BME280;9626;52.552;13.436;2024-01-16T11:42:47;99996.91;;;0.41;100.00
18985;BME280;9626;52.552;13.436;2024-01-16T11:48:15;100000.47;;;0.49;100.00
18985;BME280;9626;52.552;13.436;2024-01-16T11:50:42;100000.31;;;0.36;100.00
18985;BME280;9626;52.552;13.436;2024-01-16T11:53:09;100003.84;;;0.42;100.00
18985;BME280;9626;52.552;13.436;2024-01-16T11:55:42;99999.44;;;0.37;100.00
18985;BME280;9626;52.552;13.436;2024-01-16T12:01:00;100001.28;;;0.44;100.00
18985;BME280;9626;52.552;13.436;2024-01-16T12:03:27;99999.41;;;0.33;100.00
18985;BME280;9626;52.552;13.436;2024-01-16T12:05:56;99994.16;;;0.27;100.00
18985;BME280;9626;52.552;13.436;2024-01-16T12:08:22;99995.75;;;0.19;100.00
18985;BME280;9626;52.552;13.436;2024-01-16T12:10:49;99994.09;;;0.23;100.00
18985;BME280;9626;52.552;13.436;2024-01-16T12:13:15;99986.25;;;0.21;100.00
18985;BME280;9626;52.552;13.436;2024-01-16T12:15:42;99981.88;;;0.19;100.00
18985;BME280;9626;52.552;13.436;2024-01-16T12:18:08;99984.59;;;0.28;100.00
18985;BME280;9626;52.552;13.436;2024-01-16T12:20:36;99986.38;;;0.30;100.00
18985;BME280;9626;52.552;13.436;2024-01-16T12:23:04;99981.22;;;0.38;100.00
18985;BME280;9626;52.552;13.436;2024-01-16T12:25:32;99973.56;;;0.52;100.00
18985;BME280;9626;52.552;13.436;2024-01-16T12:28:03;99970.97;;;0.55;100.00
18985;BME280;9626;52.552;13.436;2024-01-16T12:30:31;99960.59;;;0.60;100.00
18985;BME280;9626;52.552;13.436;2024-01-16T12:33:07;99964.03;;;0.56;100.00
18985;BME280;9626;52.552;13.436;2024-01-16T12:35:37;99962.25;;;0.53;100.00
18985;BME280;9626;52.552;13.436;2024-01-16T12:38:10;99964.91;;;0.56;100.00
18985;BME280;9626;52.552;13.436;2024-01-16T12:40:39;99961.53;;;0.66;100.00
18985;BME280;9626;52.552;13.436;2024-01-16T12:43:06;99960.59;;;0.58;100.00
18985;BME280;9626;52.552;13.436;2024-01-16T12:45:33;99954.50;;;0.56;100.00
18985;BME280;9626;52.552;13.436;2024-01-16T12:48:00;99952.66;;;0.49;100.00
18985;BME280;9626;52.552;13.436;2024-01-16T12:50:27;99949.34;;;0.65;100.00
18985;BME280;9626;52.552;13.436;2024-01-16T12:53:06;99959.00;;;0.76;100.00
18985;BME280;9626;52.552;13.436;2024-01-16T12:55:34;99954.59;;;0.69;100.00